Time;durP1;ratioP1;P1;durP2;ratioP2;P2;SDS_P1;SDS_P2;PMS_P1;PMS_P2;Temp;Humidity;BMP_temperature;BMP_pressure;BME280_temperature;BME280_humidity;BME280_pressure;Samples;Min_cycle;Max_cycle;Signal;HPM_P1;HPM_P2
2022/06/07 00:00:37;;;;;;;10.67;7.73;;;16.30;99.90;;;;;;5083431;28;20314;-66
2022/06/07 00:03:24;;;;;;;11.27;7.27;;;16.30;99.90;;;;;;5084540;28;20632;-66
2022/06/07 00:06:11;;;;;;;14.87;8.50;;;16.30;99.90;;;;;;5096404;28;20260;-66
2022/06/07 00:08:58;;;;;;;11.73;8.80;;;16.30;99.90;;;;;;5092209;28;20278;-66
2022/06/07 00:11:45;;;;;;;13.07;8.30;;;16.30;99.90;;;;;;5090632;28;20298;-66
2022/06/07 00:14:34;;;;;;;10.07;7.73;;;16.40;99.90;;;;;;5090952;28;20216;-66
2022/06/07 00:17:22;;;;;;;11.70;8.43;;;16.50;99.90;;;;;;5090112;28;20261;-66
2022/06/07 00:20:09;;;;;;;11.33;7.47;;;16.50;99.90;;;;;;5092046;28;20266;-67
2022/06/07 00:22:58;;;;;;;11.10;8.27;;;16.30;99.90;;;;;;5097652;28;20331;-67
2022/06/07 00:25:46;;;;;;;12.37;7.23;;;16.20;99.90;;;;;;5096018;28;20222;-66
2022/06/07 00:28:33;;;;;;;9.87;7.77;;;16.10;99.90;;;;;;5081652;28;20223;-66
2022/06/07 00:31:22;;;;;;;12.70;7.97;;;16.00;99.90;;;;;;5096111;28;20698;-66
2022/06/07 00:34:09;;;;;;;12.83;7.70;;;16.00;99.90;;;;;;5092015;28;20313;-66
2022/06/07 00:36:56;;;;;;;13.90;8.23;;;16.00;99.90;;;;;;5086546;28;20195;-66
2022/06/07 00:39:43;;;;;;;17.87;9.80;;;16.00;99.90;;;;;;5082698;28;20195;-66
2022/06/07 00:42:30;;;;;;;12.43;9.17;;;16.00;99.90;;;;;;5086698;28;20238;-66
2022/06/07 00:45:19;;;;;;;12.10;8.60;;;15.90;99.90;;;;;;5087653;28;20631;-66
2022/06/07 00:48:08;;;;;;;14.27;9.00;;;15.80;99.90;;;;;;5086171;28;20218;-67
2022/06/07 00:50:56;;;;;;;13.00;8.93;;;15.80;99.90;;;;;;5089058;28;20213;-67
2022/06/07 00:53:43;;;;;;;11.97;9.17;;;15.60;99.90;;;;;;5091051;28;20207;-66
2022/06/07 00:56:30;;;;;;;13.33;9.70;;;15.50;99.90;;;;;;5082842;28;20188;-66
2022/06/07 00:59:17;;;;;;;13.10;9.40;;;15.40;99.90;;;;;;5086107;28;20351;-66
2022/06/07 01:02:05;;;;;;;14.70;10.30;;;15.40;99.90;;;;;;5087222;28;20281;-66
2022/06/07 01:04:53;;;;;;;14.30;9.97;;;15.30;99.90;;;;;;5094942;28;20204;-67
2022/06/07 01:10:47;;;;;;;16.70;10.00;;;15.20;99.90;;;;;;5095563;28;20206;-66
2022/06/07 01:13:35;;;;;;;16.03;9.90;;;15.10;99.90;;;;;;5091246;28;20200;-66
2022/06/07 01:16:22;;;;;;;13.07;9.43;;;14.90;99.90;;;;;;5092114;28;20341;-66
2022/06/07 01:19:09;;;;;;;13.17;9.57;;;14.80;99.90;;;;;;5102203;28;20252;-67
2022/06/07 01:21:57;;;;;;;14.83;10.00;;;14.80;99.90;;;;;;5096436;28;20317;-67
2022/06/07 01:24:44;;;;;;;13.10;9.77;;;14.80;99.90;;;;;;5091829;28;20246;-66
2022/06/07 01:27:31;;;;;;;15.53;8.47;;;14.70;99.90;;;;;;5098153;28;20236;-67
2022/06/07 01:30:19;;;;;;;10.80;9.10;;;14.60;99.90;;;;;;5100511;28;20692;-66
2022/06/07 01:33:07;;;;;;;14.43;9.30;;;14.60;99.90;;;;;;5102750;28;20253;-67
2022/06/07 01:36:00;;;;;;;13.63;9.87;;;14.50;99.90;;;;;;5098496;28;20314;-67
2022/06/07 01:41:53;;;;;;;15.63;11.37;;;14.60;99.90;;;;;;5087221;28;20357;-67
2022/06/07 01:41:57;;;;;;;16.20;11.23;;;14.50;99.90;;;;;;5088281;28;20213;-67
2022/06/07 01:44:45;;;;;;;16.07;11.60;;;14.40;99.90;;;;;;5090334;28;20203;-66
2022/06/07 01:47:32;;;;;;;19.50;13.07;;;14.30;99.90;;;;;;5093199;28;20281;-67
2022/06/07 01:50:20;;;;;;;15.47;11.80;;;14.40;99.90;;;;;;5096602;28;20287;-67
2022/06/07 01:53:07;;;;;;;16.43;12.27;;;14.30;99.90;;;;;;5086816;28;20203;-67
2022/06/07 01:56:01;;;;;;;17.40;12.80;;;14.20;99.90;;;;;;5087307;28;20369;-67
2022/06/07 01:58:48;;;;;;;15.23;11.90;;;14.10;99.90;;;;;;5097553;28;20650;-66
2022/06/07 02:01:36;;;;;;;16.93;11.77;;;14.10;99.90;;;;;;5091205;28;20241;-66
2022/06/07 02:04:23;;;;;;;16.00;12.17;;;14.10;99.90;;;;;;5094786;28;20196;-66
2022/06/07 02:07:10;;;;;;;14.17;11.20;;;14.10;99.90;;;;;;5090297;28;20916;-67
2022/06/07 02:09:57;;;;;;;17.07;11.67;;;14.00;99.90;;;;;;5094584;28;20205;-67
2022/06/07 02:12:46;;;;;;;17.30;11.90;;;14.00;99.90;;;;;;5096878;28;20321;-66
2022/06/07 02:15:33;;;;;;;20.93;13.13;;;13.90;99.90;;;;;;5086289;28;20199;-66
2022/06/07 02:18:20;;;;;;;17.43;13.03;;;13.80;99.90;;;;;;5101231;28;20333;-67
2022/06/07 02:21:07;;;;;;;15.40;11.23;;;13.70;99.90;;;;;;5087318;28;20578;-67
2022/06/07 02:23:54;;;;;;;19.37;12.93;;;13.70;99.90;;;;;;5087617;28;20671;-67
2022/06/07 02:26:43;;;;;;;20.53;12.67;;;13.70;99.90;;;;;;5084201;28;20223;-66
2022/06/07 02:29:34;;;;;;;19.47;13.13;;;13.60;99.90;;;;;;5088634;28;20192;-66
2022/06/07 02:32:23;;;;;;;20.87;13.30;;;13.60;99.90;;;;;;5094065;28;20308;-67
2022/06/07 02:35:10;;;;;;;16.20;10.60;;;13.60;99.90;;;;;;5087903;28;20698;-66
2022/06/07 02:37:57;;;;;;;14.10;10.77;;;13.50;99.90;;;;;;5087816;28;20224;-67
2022/06/07 02:40:44;;;;;;;14.67;11.37;;;13.50;99.90;;;;;;5088662;28;20853;-66
2022/06/07 02:43:31;;;;;;;17.80;11.50;;;13.50;99.90;;;;;;5083342;28;20282;-66
2022/06/07 02:46:20;;;;;;;16.40;11.93;;;13.50;99.90;;;;;;5092052;28;20592;-66
2022/06/07 02:49:07;;;;;;;22.53;12.53;;;13.40;99.90;;;;;;5095058;28;20210;-67
2022/06/07 02:51:54;;;;;;;15.93;12.03;;;13.50;99.90;;;;;;5087504;28;20583;-67
2022/06/07 02:54:41;;;;;;;17.30;12.13;;;13.40;99.90;;;;;;5088926;28;20195;-66
2022/06/07 02:57:28;;;;;;;18.20;11.40;;;13.40;99.90;;;;;;5098669;28;20271;-66
2022/06/07 03:00:16;;;;;;;20.87;12.80;;;13.30;99.90;;;;;;5089615;28;20596;-66
2022/06/07 03:03:05;;;;;;;19.43;12.00;;;13.40;99.90;;;;;;5099139;28;20206;-66
2022/06/07 03:05:52;;;;;;;19.47;11.83;;;13.40;99.90;;;;;;5092939;28;20312;-67
2022/06/07 03:08:39;;;;;;;16.37;11.20;;;13.40;99.90;;;;;;5102825;28;20688;-66
2022/06/07 03:11:26;;;;;;;16.73;12.47;;;13.30;99.90;;;;;;5088124;28;20200;-67
2022/06/07 03:14:13;;;;;;;18.57;13.03;;;13.30;99.90;;;;;;5094991;28;20207;-67
2022/06/07 03:17:00;;;;;;;19.17;12.93;;;13.30;99.90;;;;;;5100230;28;20291;-67
2022/06/07 03:19:49;;;;;;;20.37;13.30;;;13.40;99.90;;;;;;5095467;28;20202;-67
2022/06/07 03:22:36;;;;;;;19.13;12.67;;;13.50;99.90;;;;;;5094006;28;20286;-66
2022/06/07 03:25:24;;;;;;;21.87;14.17;;;13.50;99.90;;;;;;5098177;28;20267;-67
2022/06/07 03:28:11;;;;;;;18.33;11.93;;;13.60;99.90;;;;;;5096232;28;20211;-67
2022/06/07 03:31:05;;;;;;;19.10;13.13;;;13.60;99.90;;;;;;5095546;28;20207;-67
2022/06/07 03:33:52;;;;;;;22.33;14.53;;;13.60;99.90;;;;;;5095602;28;20602;-67
2022/06/07 03:36:41;;;;;;;19.40;13.07;;;13.80;99.90;;;;;;5093887;28;20340;-67
2022/06/07 03:39:28;;;;;;;19.37;13.63;;;13.70;99.90;;;;;;5092898;28;20227;-71
2022/06/07 03:42:15;;;;;;;22.70;14.67;;;13.80;99.90;;;;;;5091922;28;20240;-67
2022/06/07 03:45:02;;;;;;;24.87;14.70;;;14.00;99.90;;;;;;5093001;28;20328;-67
2022/06/07 03:47:49;;;;;;;16.53;11.87;;;14.10;99.90;;;;;;5092585;28;20222;-67
2022/06/07 03:50:37;;;;;;;19.90;12.07;;;14.10;99.90;;;;;;5090695;28;20199;-67
2022/06/07 03:53:25;;;;;;;17.07;12.93;;;14.20;99.90;;;;;;5098506;28;20230;-67
2022/06/07 03:56:12;;;;;;;25.70;17.07;;;14.30;99.90;;;;;;5097740;28;20241;-67
2022/06/07 03:58:59;;;;;;;25.03;15.53;;;14.50;99.90;;;;;;5099074;28;20241;-67
2022/06/07 04:01:47;;;;;;;21.93;14.00;;;14.60;99.90;;;;;;5094399;28;20694;-67
2022/06/07 04:04:34;;;;;;;19.57;13.93;;;14.60;99.90;;;;;;5087456;28;20193;-67
2022/06/07 04:10:29;;;;;;;20.23;15.27;;;14.80;99.90;;;;;;5084028;28;20320;-67
2022/06/07 04:13:16;;;;;;;21.77;15.40;;;14.90;99.90;;;;;;5086106;28;20281;-67
2022/06/07 04:16:06;;;;;;;25.50;17.73;;;14.90;99.90;;;;;;5084412;28;20242;-67
2022/06/07 04:18:53;;;;;;;24.73;16.33;;;15.00;99.90;;;;;;5084464;28;20227;-67
2022/06/07 04:21:40;;;;;;;29.23;19.80;;;15.20;99.90;;;;;;5083144;28;20214;-67
2022/06/07 04:24:27;;;;;;;30.13;19.13;;;15.30;99.90;;;;;;5082072;28;20207;-67
2022/06/07 04:27:16;;;;;;;27.87;18.83;;;15.50;99.90;;;;;;5090094;28;20228;-67
2022/06/07 04:30:05;;;;;;;28.90;22.03;;;15.50;99.90;;;;;;5096399;28;20766;-67
2022/06/07 04:32:52;;;;;;;27.10;19.53;;;15.70;99.90;;;;;;5097901;28;20286;-67
2022/06/07 04:35:39;;;;;;;20.93;15.57;;;15.90;99.90;;;;;;5088387;28;20297;-67
2022/06/07 04:38:26;;;;;;;26.33;17.67;;;16.20;99.90;;;;;;5100432;28;20690;-67
2022/06/07 04:41:14;;;;;;;20.60;14.73;;;16.20;99.90;;;;;;5086632;28;20578;-67
2022/06/07 04:44:03;;;;;;;18.43;13.10;;;16.50;99.90;;;;;;5093898;28;21107;-67
2022/06/07 04:46:50;;;;;;;15.63;11.10;;;16.70;99.90;;;;;;5086055;28;20217;-67
2022/06/07 04:49:37;;;;;;;14.67;10.03;;;16.90;99.90;;;;;;5092036;28;20204;-67
2022/06/07 04:52:24;;;;;;;13.40;9.50;;;17.00;99.90;;;;;;5089074;28;20197;-67
2022/06/07 04:55:11;;;;;;;10.73;8.30;;;17.20;99.90;;;;;;5088342;28;20283;-67
2022/06/07 04:57:58;;;;;;;11.53;7.57;;;17.30;99.90;;;;;;5095553;28;20192;-67
2022/06/07 05:00:47;;;;;;;12.90;8.00;;;17.50;99.90;;;;;;5085074;28;20232;-67
2022/06/07 05:03:34;;;;;;;11.70;7.03;;;17.60;99.90;;;;;;5081650;28;20291;-67
2022/06/07 05:06:22;;;;;;;10.63;6.57;;;17.70;99.90;;;;;;5090749;28;20578;-67
2022/06/07 05:09:11;;;;;;;10.67;6.70;;;17.70;99.90;;;;;;5098888;28;20206;-67
2022/06/07 05:11:58;;;;;;;13.57;6.83;;;17.80;99.90;;;;;;5099254;28;20228;-67
2022/06/07 05:14:45;;;;;;;9.57;6.37;;;17.90;99.90;;;;;;5091825;28;20236;-67
2022/06/07 05:17:34;;;;;;;12.33;7.47;;;18.00;99.90;;;;;;5077518;28;20355;-67
2022/06/07 05:20:21;;;;;;;9.73;6.30;;;18.10;99.90;;;;;;5101452;28;20280;-67
2022/06/07 05:23:08;;;;;;;9.90;6.97;;;18.10;99.90;;;;;;5098230;28;21414;-67
2022/06/07 05:25:56;;;;;;;9.97;6.30;;;18.30;99.90;;;;;;5098229;28;20259;-67
2022/06/07 05:28:43;;;;;;;9.83;6.77;;;18.40;99.90;;;;;;5093172;28;20208;-66
2022/06/07 05:31:30;;;;;;;10.97;7.03;;;18.50;99.90;;;;;;5098563;28;20204;-66
2022/06/07 05:34:19;;;;;;;9.13;6.43;;;18.50;1.00;;;;;;5094087;28;20590;-66
2022/06/07 05:37:07;;;;;;;9.67;6.83;;;18.50;1.00;;;;;;5092238;28;20200;-66
2022/06/07 05:39:54;;;;;;;9.57;7.80;;;18.60;1.00;;;;;;5092800;28;20209;-67
2022/06/07 05:42:41;;;;;;;12.33;7.20;;;18.70;99.90;;;;;;5087849;28;20726;-67
2022/06/07 05:45:28;;;;;;;16.47;6.93;;;18.80;99.90;;;;;;5091353;28;20200;-66
2022/06/07 05:48:15;;;;;;;10.97;7.13;;;18.90;99.90;;;;;;5087326;28;20363;-67
2022/06/07 05:51:04;;;;;;;12.47;7.00;;;19.00;99.90;;;;;;5097754;28;20206;-67
2022/06/07 05:53:54;;;;;;;11.27;8.00;;;19.30;99.90;;;;;;5084441;28;20348;-68
2022/06/07 05:56:41;;;;;;;8.60;6.83;;;19.50;99.90;;;;;;5096747;28;20202;-67
2022/06/07 05:59:28;;;;;;;8.93;7.00;;;19.50;99.90;;;;;;5090737;28;20229;-67
2022/06/07 06:02:16;;;;;;;10.53;7.50;;;19.40;99.90;;;;;;5096807;28;20264;-67
2022/06/07 06:05:03;;;;;;;8.83;6.83;;;19.50;99.90;;;;;;5095061;28;20668;-67
2022/06/07 06:11:07;;;;;;;9.73;6.80;;;19.80;99.90;;;;;;5084099;28;20227;-67
2022/06/07 06:13:55;;;;;;;8.07;6.47;;;19.80;99.90;;;;;;5096763;28;20211;-67
2022/06/07 06:16:42;;;;;;;7.90;6.20;;;19.90;99.90;;;;;;5093506;28;20290;-67
2022/06/07 06:19:29;;;;;;;11.40;6.40;;;20.20;99.90;;;;;;5089991;28;20234;-67
2022/06/07 06:22:16;;;;;;;7.80;6.00;;;20.40;99.90;;;;;;5093580;28;20204;-67
2022/06/07 06:25:05;;;;;;;11.77;6.57;;;20.40;99.90;;;;;;5083236;28;20568;-67
2022/06/07 06:27:52;;;;;;;11.33;6.10;;;20.50;99.90;;;;;;5081827;28;20251;-67
2022/06/07 06:30:44;;;;;;;7.27;5.90;;;20.50;99.90;;;;;;5082511;28;20219;-67
2022/06/07 06:33:31;;;;;;;7.93;5.77;;;20.80;99.90;;;;;;5082776;28;20274;-67
2022/06/07 06:36:19;;;;;;;7.97;5.50;;;21.00;99.90;;;;;;5088735;28;20250;-67
2022/06/07 06:39:06;;;;;;;7.80;6.00;;;21.00;99.90;;;;;;5088486;28;20289;-67
2022/06/07 06:41:55;;;;;;;7.73;5.80;;;21.30;99.90;;;;;;5080883;28;20744;-67
2022/06/07 06:44:42;;;;;;;8.50;6.20;;;21.50;99.90;;;;;;5089767;28;20294;-67
2022/06/07 06:47:29;;;;;;;6.60;5.40;;;21.40;99.90;;;;;;5083619;28;20298;-67
2022/06/07 06:50:16;;;;;;;7.47;5.30;;;21.50;99.90;;;;;;5084497;28;20257;-67
2022/06/07 06:53:03;;;;;;;8.53;5.50;;;21.80;99.90;;;;;;5082238;28;20230;-67
2022/06/07 06:55:51;;;;;;;7.67;5.10;;;21.50;99.90;;;;;;5084958;28;20204;-67
2022/06/07 06:58:39;;;;;;;6.50;5.33;;;21.90;99.90;;;;;;5088979;28;20192;-67
2022/06/07 07:01:28;;;;;;;8.00;5.33;;;22.20;99.90;;;;;;5088050;28;20211;-67
2022/06/07 07:04:17;;;;;;;8.20;5.20;;;22.10;99.90;;;;;;5087886;28;20258;-67
2022/06/07 07:07:04;;;;;;;5.53;5.00;;;22.50;99.90;;;;;;5088761;28;20219;-67
2022/06/07 07:09:51;;;;;;;5.80;5.00;;;22.70;99.90;;;;;;5088966;28;20341;-67
2022/06/07 07:12:39;;;;;;;6.00;5.13;;;22.40;99.90;;;;;;5076473;28;20396;-67
2022/06/07 07:15:27;;;;;;;6.13;5.50;;;22.10;99.90;;;;;;5084332;28;20211;-67
2022/06/07 07:18:14;;;;;;;7.27;4.73;;;22.70;99.90;;;;;;5091087;28;20200;-67
2022/06/07 07:21:04;;;;;;;5.60;4.60;;;22.30;99.90;;;;;;5088360;28;20680;-67
2022/06/07 07:23:51;;;;;;;6.77;4.70;;;22.50;99.90;;;;;;5083792;28;20199;-67
2022/06/07 07:26:38;;;;;;;5.67;4.90;;;22.90;99.90;;;;;;5089295;28;20710;-67
2022/06/07 07:29:25;;;;;;;9.33;5.00;;;22.70;99.90;;;;;;5093758;28;20196;-67
2022/06/07 07:32:14;;;;;;;5.33;4.27;;;23.00;99.90;;;;;;5094056;28;20293;-67
2022/06/07 07:35:01;;;;;;;6.13;4.77;;;23.00;99.90;;;;;;5094379;28;20205;-67
2022/06/07 07:37:48;;;;;;;5.33;4.77;;;22.80;99.90;;;;;;5087694;28;20295;-67
2022/06/07 07:40:35;;;;;;;4.70;3.93;;;23.10;99.90;;;;;;5088179;28;20243;-67
2022/06/07 07:43:22;;;;;;;5.70;4.30;;;23.20;99.90;;;;;;5090252;28;20199;-67
2022/06/07 07:46:09;;;;;;;6.33;4.27;;;23.10;99.90;;;;;;5088589;28;20408;-67
2022/06/07 07:48:58;;;;;;;6.23;4.17;;;22.80;99.90;;;;;;5087190;28;20215;-67
2022/06/07 07:51:46;;;;;;;4.43;4.03;;;22.70;99.90;;;;;;5091709;28;20281;-67
2022/06/07 07:54:34;;;;;;;5.20;3.90;;;22.80;99.90;;;;;;5091831;28;20199;-67
2022/06/07 07:57:21;;;;;;;6.50;4.20;;;22.80;99.90;;;;;;5086698;28;20208;-66
2022/06/07 08:00:09;;;;;;;6.93;4.00;;;22.90;99.90;;;;;;5093045;28;20303;-67
2022/06/07 08:02:56;;;;;;;4.50;4.10;;;23.00;99.90;;;;;;5092045;28;20286;-67
2022/06/07 08:05:45;;;;;;;5.97;4.00;;;23.40;99.90;;;;;;5085521;28;20196;-67
2022/06/07 08:08:32;;;;;;;4.43;3.90;;;23.30;99.90;;;;;;5091216;28;20353;-67
2022/06/07 08:11:21;;;;;;;4.60;4.00;;;23.70;99.90;;;;;;5087619;28;20286;-67
2022/06/07 08:14:09;;;;;;;5.57;4.35;;;23.90;99.90;;;;;;5089634;28;20257;-67
2022/06/07 08:16:57;;;;;;;6.07;3.97;;;24.30;99.90;;;;;;5085819;28;20208;-67
2022/06/07 08:19:44;;;;;;;4.85;3.58;;;24.10;99.90;;;;;;5092228;28;20734;-67
2022/06/07 08:22:32;;;;;;;4.30;3.90;;;23.80;99.90;;;;;;5094339;28;20256;-67
2022/06/07 08:25:19;;;;;;;5.13;3.90;;;23.40;99.90;;;;;;5089428;28;20563;-66
2022/06/07 08:28:07;;;;;;;5.07;4.17;;;23.40;99.90;;;;;;5086960;28;20307;-66
2022/06/07 08:30:54;;;;;;;4.80;3.93;;;23.50;99.90;;;;;;5090985;28;20677;-67
2022/06/07 08:39:54;;;;;;;5.22;3.95;;;23.80;99.90;;;;;;5085921;28;20283;-67
2022/06/07 08:42:43;;;;;;;6.85;4.35;;;24.30;99.20;;;;;;5089620;28;20291;-67
2022/06/07 08:45:32;;;;;;;8.13;4.40;;;24.10;99.90;;;;;;5088291;28;20219;-67
2022/06/07 08:48:21;;;;;;;4.60;4.20;;;24.80;98.40;;;;;;5084677;28;21063;-67
2022/06/07 08:51:15;;;;;;;5.18;3.90;;;25.80;97.80;;;;;;5093416;28;20657;-67
2022/06/07 08:54:04;;;;;;;4.90;3.88;;;25.70;93.10;;;;;;5089507;28;20578;-67
2022/06/07 08:56:53;;;;;;;5.05;3.65;;;25.10;89.70;;;;;;5087590;28;20890;-67
2022/06/07 08:59:40;;;;;;;7.57;3.88;;;24.60;94.10;;;;;;5083154;28;20242;-67
2022/06/07 09:02:45;;;;;;;3.83;3.38;;;24.60;96.90;;;;;;5092269;28;20208;-67
2022/06/07 09:05:33;;;;;;;8.98;3.42;;;25.00;97.30;;;;;;5083200;28;20200;-67
2022/06/07 09:08:20;;;;;;;6.32;4.07;;;24.60;93.40;;;;;;5092807;28;20677;-66
2022/06/07 09:14:19;;;;;;;7.15;3.75;;;25.30;85.80;;;;;;5082749;28;20617;-66
2022/06/07 09:17:10;;;;;;;5.95;3.70;;;25.00;93.90;;;;;;5084592;28;20281;-67
2022/06/07 09:19:57;;;;;;;3.50;3.17;;;24.90;91.90;;;;;;5082980;28;20233;-66
2022/06/07 09:22:50;;;;;;;7.10;3.47;;;24.80;88.30;;;;;;5082627;28;20203;-67
2022/06/07 09:25:39;;;;;;;4.78;3.75;;;25.70;91.50;;;;;;5103133;28;20719;-67
2022/06/07 09:28:27;;;;;;;5.95;3.47;;;25.60;84.00;;;;;;5091560;28;20687;-67
2022/06/07 09:31:17;;;;;;;3.63;3.33;;;26.10;90.20;;;;;;5095409;28;20192;-67
2022/06/07 09:34:05;;;;;;;3.50;3.17;;;26.30;75.30;;;;;;5097161;28;20210;-67
2022/06/07 09:36:56;;;;;;;7.78;3.53;;;26.40;81.00;;;;;;5092695;28;20301;-67
2022/06/07 09:39:43;;;;;;;4.93;3.25;;;26.80;79.80;;;;;;5088194;28;20192;-67
2022/06/07 09:42:31;;;;;;;3.58;3.03;;;26.40;82.30;;;;;;5096708;28;20225;-67
2022/06/07 09:45:23;;;;;;;4.80;3.28;;;26.40;78.80;;;;;;5087895;28;20333;-67
2022/06/07 09:48:25;;;;;;;4.10;3.08;;;27.20;73.60;;;;;;5094144;28;20669;-67
2022/06/07 09:51:16;;;;;;;5.05;3.03;;;27.60;68.90;;;;;;5092373;28;20203;-67
2022/06/07 09:54:05;;;;;;;2.58;2.33;;;27.10;70.40;;;;;;5097897;28;20228;-67
2022/06/07 09:57:03;;;;;;;2.88;2.40;;;26.80;68.80;;;;;;5100236;28;20232;-67
2022/06/07 09:59:59;;;;;;;2.67;2.40;;;27.30;68.20;;;;;;5091442;28;20233;-67
2022/06/07 10:03:31;;;;;;;2.60;2.22;;;26.80;67.30;;;;;;5084152;28;20840;-67
2022/06/07 10:06:23;;;;;;;6.90;2.70;;;26.50;66.20;;;;;;5086033;28;20203;-67
2022/06/07 10:09:29;;;;;;;5.00;2.58;;;26.40;66.10;;;;;;5085858;28;20251;-67
2022/06/07 10:12:20;;;;;;;3.17;2.55;;;25.50;71.20;;;;;;5090371;28;20199;-66
2022/06/07 10:15:20;;;;;;;3.45;2.67;;;25.20;74.00;;;;;;5090449;28;20549;-66
2022/06/07 10:18:15;;;;;;;5.45;3.10;;;25.10;74.50;;;;;;5089308;28;20285;-67
2022/06/07 10:21:41;;;;;;;5.30;3.00;;;25.10;82.90;;;;;;5092363;28;20287;-66
2022/06/07 10:24:34;;;;;;;3.50;3.03;;;25.40;91.50;;;;;;5091977;28;20212;-67
2022/06/07 10:27:23;;;;;;;4.30;3.22;;;26.20;81.30;;;;;;5090078;28;20192;-67
2022/06/07 10:30:15;;;;;;;3.75;3.15;;;26.20;81.00;;;;;;5089071;28;20673;-66
2022/06/07 10:33:17;;;;;;;6.40;3.20;;;25.50;82.80;;;;;;5090949;28;20203;-66
2022/06/07 10:36:10;;;;;;;4.82;3.15;;;25.00;90.10;;;;;;5089244;28;20195;-66
2022/06/07 10:39:07;;;;;;;4.68;3.30;;;24.90;91.40;;;;;;5088246;28;20220;-67
2022/06/07 10:41:59;;;;;;;4.68;3.58;;;24.80;86.60;;;;;;5090790;28;20231;-66
2022/06/07 10:44:48;;;;;;;6.25;3.42;;;25.10;91.10;;;;;;5091323;28;20578;-66
2022/06/07 10:47:37;;;;;;;6.25;3.63;;;24.60;90.90;;;;;;5091389;28;20196;-66
2022/06/07 10:50:27;;;;;;;9.05;3.10;;;24.40;94.60;;;;;;5090986;28;20266;-67
2022/06/07 10:53:16;;;;;;;5.97;3.70;;;24.40;95.90;;;;;;5089032;28;20686;-66
2022/06/07 10:56:07;;;;;;;4.75;3.88;;;24.60;86.70;;;;;;5087701;28;20283;-66
2022/06/07 10:58:54;;;;;;;5.63;4.18;;;24.70;91.60;;;;;;5084626;28;20192;-66
2022/06/07 11:01:46;;;;;;;3.78;3.33;;;25.60;90.10;;;;;;5091047;28;20200;-67
2022/06/07 11:10:46;;;;;;;7.13;3.70;;;28.00;73.50;;;;;;5083043;28;20196;-67
2022/06/07 11:13:37;;;;;;;16.98;3.92;;;28.30;65.90;;;;;;5089385;28;20274;-67
2022/06/07 11:16:27;;;;;;;4.63;2.90;;;28.00;70.00;;;;;;5089513;28;20654;-67
2022/06/07 11:19:14;;;;;;;3.65;2.70;;;29.00;57.50;;;;;;5090242;28;20646;-67
2022/06/07 11:22:03;;;;;;;3.28;2.72;;;28.30;57.40;;;;;;5084816;28;20195;-67
2022/06/07 11:24:59;;;;;;;4.43;2.88;;;28.20;62.30;;;;;;5089745;28;20219;-67
2022/06/07 11:27:51;;;;;;;5.90;2.78;;;28.00;60.80;;;;;;5090431;28;20203;-66
2022/06/07 11:30:48;;;;;;;3.20;2.70;;;28.10;58.50;;;;;;5088419;28;20330;-67
2022/06/07 11:33:58;;;;;;;3.22;2.70;;;29.40;58.10;;;;;;5087772;28;20184;-66
2022/06/07 11:36:45;;;;;;;15.40;3.38;;;27.70;56.60;;;;;;5090131;28;20278;-66
2022/06/07 11:39:33;;;;;;;4.50;2.75;;;27.80;60.90;;;;;;5089170;28;20762;-66
2022/06/07 11:42:33;;;;;;;3.17;2.60;;;27.80;56.40;;;;;;5086735;28;20192;-66
2022/06/07 11:45:23;;;;;;;3.70;2.78;;;27.70;56.40;;;;;;5089232;28;20188;-66
2022/06/07 11:48:17;;;;;;;7.20;2.40;;;27.80;58.60;;;;;;5088305;28;20448;-66
2022/06/07 11:51:13;;;;;;;3.45;2.20;;;27.70;58.00;;;;;;5089047;28;20281;-66
2022/06/07 11:54:03;;;;;;;3.88;1.98;;;28.00;56.30;;;;;;5087824;28;20642;-67
2022/06/07 11:56:51;;;;;;;2.60;1.90;;;28.90;54.40;;;;;;5084883;28;20242;-67
2022/06/07 11:59:43;;;;;;;2.38;2.05;;;28.70;54.60;;;;;;5089419;28;20233;-67
2022/06/07 12:02:32;;;;;;;5.55;2.15;;;29.20;54.20;;;;;;5089219;28;20658;-67
2022/06/07 12:05:26;;;;;;;2.38;2.17;;;29.10;53.20;;;;;;5088437;28;20203;-67
2022/06/07 12:08:17;;;;;;;3.08;2.17;;;29.20;56.90;;;;;;5087225;28;20219;-67
2022/06/07 12:11:05;;;;;;;3.38;2.30;;;29.40;54.10;;;;;;5089103;28;20207;-66
2022/06/07 12:13:59;;;;;;;3.65;2.50;;;28.80;56.00;;;;;;5089151;28;20677;-67
2022/06/07 12:16:54;;;;;;;4.28;2.85;;;29.00;54.50;;;;;;5086485;28;20204;-67
2022/06/07 12:19:45;;;;;;;4.28;3.38;;;28.60;56.00;;;;;;5081701;28;20225;-66
2022/06/07 12:22:42;;;;;;;5.70;2.90;;;29.00;58.20;;;;;;5089464;28;20674;-67
2022/06/07 12:25:35;;;;;;;4.18;2.90;;;28.10;57.70;;;;;;5088269;28;20260;-66
2022/06/07 12:28:23;;;;;;;3.97;2.53;;;28.70;57.40;;;;;;5088554;28;20198;-67
2022/06/07 12:31:13;;;;;;;2.70;2.20;;;28.60;60.70;;;;;;5088654;28;20687;-67
2022/06/07 12:34:01;;;;;;;7.13;2.38;;;29.20;56.40;;;;;;5084123;28;20276;-66
2022/06/07 12:36:52;;;;;;;7.05;2.38;;;28.80;57.00;;;;;;5082070;28;20200;-66
2022/06/07 12:39:43;;;;;;;3.95;2.17;;;29.00;55.30;;;;;;5088965;28;20309;-66
2022/06/07 12:42:32;;;;;;;2.65;1.90;;;29.40;52.30;;;;;;5088020;28;20538;-67
2022/06/07 12:45:21;;;;;;;2.63;2.03;;;30.50;51.10;;;;;;5083134;28;20204;-66
2022/06/07 12:48:13;;;;;;;2.67;2.00;;;29.60;50.70;;;;;;5087896;28;20195;-66
2022/06/07 12:51:01;;;;;;;3.53;1.90;;;28.50;52.10;;;;;;5088254;28;20208;-66
2022/06/07 12:53:48;;;;;;;2.45;1.92;;;29.80;53.00;;;;;;5072501;28;20242;-66
2022/06/07 12:56:41;;;;;;;2.95;2.10;;;29.50;52.30;;;;;;5079959;28;20779;-66
2022/06/07 12:59:34;;;;;;;2.05;1.88;;;29.10;53.60;;;;;;5092342;28;20227;-66
2022/06/07 13:02:24;;;;;;;1.95;1.77;;;29.30;52.30;;;;;;5094959;28;21215;-67
2022/06/07 13:05:17;;;;;;;3.15;1.55;;;29.60;52.60;;;;;;5087706;28;20631;-67
2022/06/07 13:08:14;;;;;;;2.22;1.73;;;30.20;51.10;;;;;;5081355;28;20207;-67
2022/06/07 13:11:01;;;;;;;3.72;1.80;;;30.30;48.60;;;;;;5087429;28;20200;-66
2022/06/07 13:13:51;;;;;;;7.68;1.75;;;29.60;50.10;;;;;;5091818;28;20235;-66
2022/06/07 13:16:41;;;;;;;2.97;2.15;;;30.20;51.00;;;;;;5090861;28;20651;-66
2022/06/07 13:19:29;;;;;;;2.10;1.80;;;29.80;50.00;;;;;;5090132;28;20237;-66
2022/06/07 13:22:17;;;;;;;5.53;2.10;;;29.40;51.10;;;;;;5087932;28;20472;-67
2022/06/07 13:25:16;;;;;;;3.65;1.98;;;29.30;54.10;;;;;;5082784;28;20283;-67
2022/06/07 13:28:04;;;;;;;2.10;1.90;;;29.10;50.00;;;;;;5087800;28;20292;-66
2022/06/07 13:30:54;;;;;;;4.63;2.05;;;29.40;50.90;;;;;;5082677;28;20334;-66
2022/06/07 13:33:41;;;;;;;2.85;1.90;;;31.10;51.80;;;;;;5089193;28;20208;-66
2022/06/07 13:36:36;;;;;;;2.42;1.70;;;32.50;47.90;;;;;;5089612;28;20329;-67
2022/06/07 13:39:25;;;;;;;1.70;1.60;;;33.00;46.30;;;;;;5089280;28;20204;-67
2022/06/07 13:42:15;;;;;;;2.13;1.70;;;31.90;45.60;;;;;;5090077;28;20719;-67
2022/06/07 13:45:18;;;;;;;4.85;1.77;;;29.90;46.40;;;;;;5085690;28;20223;-66
2022/06/07 13:48:13;;;;;;;2.05;1.70;;;31.10;49.40;;;;;;5085884;28;20600;-66
2022/06/07 13:54:15;;;;;;;5.03;1.40;;;32.00;46.80;;;;;;5087495;28;20196;-66
2022/06/07 13:57:02;;;;;;;4.72;1.83;;;31.90;46.40;;;;;;5090237;28;20686;-66
2022/06/07 13:59:49;;;;;;;3.88;1.80;;;31.20;46.50;;;;;;5091241;28;20228;-66
2022/06/07 14:02:38;;;;;;;1.52;1.40;;;30.60;47.00;;;;;;5091746;28;20227;-67
2022/06/07 14:05:28;;;;;;;3.08;1.50;;;30.20;49.50;;;;;;5091911;28;20223;-66
2022/06/07 14:08:15;;;;;;;2.38;1.42;;;29.90;48.90;;;;;;5081734;28;20274;-66
2022/06/07 14:11:03;;;;;;;4.53;1.50;;;31.00;50.00;;;;;;5087846;28;20223;-66
2022/06/07 14:13:50;;;;;;;10.82;1.60;;;30.10;47.30;;;;;;5083578;28;20207;-66
2022/06/07 14:16:39;;;;;;;3.95;1.25;;;30.90;46.30;;;;;;5093972;28;20271;-66
2022/06/07 14:19:29;;;;;;;2.97;1.60;;;29.70;48.50;;;;;;5090693;28;20195;-66
2022/06/07 14:22:18;;;;;;;3.67;1.30;;;28.90;48.70;;;;;;5095326;28;20298;-66
2022/06/07 14:25:08;;;;;;;7.13;1.50;;;28.20;48.60;;;;;;5095323;28;20337;-65
2022/06/07 14:27:55;;;;;;;7.65;1.30;;;28.80;49.20;;;;;;5092300;28;20215;-65
2022/06/07 14:30:42;;;;;;;5.30;1.30;;;28.70;46.40;;;;;;5090941;28;20215;-65
2022/06/07 14:33:29;;;;;;;1.40;1.30;;;28.60;47.20;;;;;;5088438;28;20357;-65
2022/06/07 14:36:17;;;;;;;1.73;1.13;;;27.80;48.50;;;;;;5088335;28;20239;-66
2022/06/07 14:39:05;;;;;;;1.10;1.00;;;27.90;49.40;;;;;;5088063;28;20257;-65
2022/06/07 14:41:52;;;;;;;1.13;1.00;;;28.90;47.20;;;;;;5086796;28;20203;-65
2022/06/07 14:44:40;;;;;;;1.60;1.10;;;28.40;48.80;;;;;;5087889;28;20204;-65
2022/06/07 14:47:28;;;;;;;2.83;1.33;;;28.30;48.80;;;;;;5082262;28;20205;-64
2022/06/07 14:50:17;;;;;;;7.38;1.38;;;28.50;48.40;;;;;;5088115;28;20784;-64
2022/06/07 14:53:04;;;;;;;5.95;1.70;;;27.60;50.40;;;;;;5088799;28;20581;-64
2022/06/07 14:55:53;;;;;;;4.78;1.75;;;27.20;51.10;;;;;;5088065;28;20264;-65
2022/06/07 14:58:40;;;;;;;1.75;1.60;;;26.90;51.60;;;;;;5085379;28;20237;-65
2022/06/07 15:01:32;;;;;;;3.45;1.50;;;26.80;53.20;;;;;;5094332;28;20262;-64